Hub


Voltar

 INFORMAÇÕES METEOROLÓGICAS

METAR FOR KMEV


ADDS - METARS form results

(0318 UTC 20 April 2019)
Data provider http://aviationweather.gov/metar/data/
 
METAR text: KMEV 200315Z AUTO 25009KT 10SM CLR 17/03 A2995 RMK AO2
Conditions at: KMEV (MINDEN , NV, US) observed 0315 UTC 20 April 2019
Temperature: 17.0°C (63°F)
Dewpoint: 3.0°C (37°F) [RH = 39%]
Pressure (altimeter): 29.95 inches Hg (1014.3 mb)
Winds: from the WSW (250 degrees) at 10 MPH (9 knots; 4.6 m/s)
Visibility: 10 or more miles (16+ km)
Ceiling: at least 12,000 feet AGL
Clouds: sky clear below 12,000 feet AGL
Weather: automated observation with no human augmentation;
there may or may not be significant weather present at this time

METAR text: KMEV 200255Z AUTO 26013G16KT 10SM CLR 17/02 A2994 RMK AO2
Conditions at: KMEV (MINDEN , NV, US) observed 0255 UTC 20 April 2019
Temperature: 17.0°C (63°F)
Dewpoint: 2.0°C (36°F) [RH = 36%]
Pressure (altimeter): 29.94 inches Hg (1014.0 mb)
Winds: from the W (260 degrees) at 15 MPH (13 knots; 6.7 m/s)
gusting to 18 MPH (16 knots; 8.2 m/s)
Visibility: 10 or more miles (16+ km)
Ceiling: at least 12,000 feet AGL
Clouds: sky clear below 12,000 feet AGL
Weather: automated observation with no human augmentation;
there may or may not be significant weather present at this time

METAR text: KMEV 200235Z AUTO 27011G20KT 10SM CLR 18/02 A2995 RMK AO2
Conditions at: KMEV (MINDEN , NV, US) observed 0235 UTC 20 April 2019
Temperature: 18.0°C (64°F)
Dewpoint: 2.0°C (36°F) [RH = 34%]
Pressure (altimeter): 29.95 inches Hg (1014.3 mb)
Winds: from the W (270 degrees) at 13 MPH (11 knots; 5.7 m/s)
gusting to 23 MPH (20 knots; 10.3 m/s)
Visibility: 10 or more miles (16+ km)
Ceiling: at least 12,000 feet AGL
Clouds: sky clear below 12,000 feet AGL
Weather: automated observation with no human augmentation;
there may or may not be significant weather present at this time


 MAPA DO AEROPORTO


 INFORMAÇÕES DA PISTA

Pista 12 Tamanho da pista 5300 ft Largura da pista 75 ft
Elevação da pista 4700 ft Ranhura da pista 0 ft Proa da pista 135
Pista 30 Tamanho da pista 5300 ft Largura da pista 75 ft
Elevação da pista 4722 ft Ranhura da pista 0 ft Proa da pista 315
Pista 12G Tamanho da pista 2200 ft Largura da pista 60 ft
Elevação da pista 0 ft Ranhura da pista 0 ft Proa da pista 0
Pista 30G Tamanho da pista 2200 ft Largura da pista 60 ft
Elevação da pista 0 ft Ranhura da pista 0 ft Proa da pista 0
Pista 16 Tamanho da pista 7400 ft Largura da pista 100 ft
Elevação da pista 4708 ft Ranhura da pista 0 ft Proa da pista 180
Pista 34 Tamanho da pista 7400 ft Largura da pista 100 ft
Elevação da pista 4717 ft Ranhura da pista 0 ft Proa da pista 360

 FREQUÊNCIAS DO AEROPORTO

Tipo A/D Nome RENO APP/D Frequência 119.2 MHZ
Tipo AWOS Nome AWOS 3 Frequência 119.325 MHZ
Tipo UNIC Nome CTAF/UNICO Frequência 122.8 MHZ

 AUXÍLIOS DE NAVEGAÇÃO PRÓXIMOS AO AEROPORTO